Norwich, Kansas
Current Conditions -  °F | °C
As of 9:53 AM on Friday 28 Nov 2014 (Local Time) from KICT Reporting Station
Scattered Clouds Scattered Clouds  
Wind Chill: 42°   Ceiling: Unl
Heat Index: 49°   Visibility: 10mi
Dew Point: 31°   Wind: 21mph
Humidity: 50%   Direction: 200°SSW
Pressure: 29.98"   Gusts: NA
Location:  37.46°N, 97.85°W
Report Text: KICT 281553Z 20018KT 10SM SCT250 09/M01 A2998 RMK AO2 SLP154 T00941006
Loading
Personal Weather Stations






























Interactive Weather Map New forecast layout! Learn more

10-Day Weather Forecast

Advertisements
Track Severe Weather on mobile